Terminal Aerodrome Forecast
Issued by NWS

Home | Current Version | Previous Version | Text Only | Print | Product List | Glossary Off
Versions: 1 2 3 4 5 6 7 8 9 10 11 12 13 14 15 16 17 18 19 20 21 22 23 24 25

794
FTUS43 KMPX 260520
TAFAXN
TAF
KAXN 260520Z 2606/2706 01007KT 4SM SHRA BR BKN012 OVC020
     FM261200 33007KT P6SM OVC007
     FM261600 32009KT P6SM OVC008
     FM261800 30012G18KT P6SM OVC015
     FM262100 30012G19KT P6SM BKN025
     FM270400 30007KT P6SM SCT025 BKN040=

USA.gov is the U.S. government's official web portal to all federal, state and local government web resources and services.